sensor_id;sensor_type;location;lat;lon;timestamp;P1;P2;P0
70691;PMS5003;58267;51.156;17.044;2023-04-24T00:00:21;37;37;
70691;PMS5003;58267;51.156;17.044;2023-04-24T00:02:47;37;36;
70691;PMS5003;58267;51.156;17.044;2023-04-24T00:05:13;41;41;
70691;PMS5003;58267;51.156;17.044;2023-04-24T00:07:38;36;35;
70691;PMS5003;58267;51.156;17.044;2023-04-24T00:10:03;34;31;
70691;PMS5003;58267;51.156;17.044;2023-04-24T00:12:28;35;32;
70691;PMS5003;58267;51.156;17.044;2023-04-24T00:14:53;37;35;
70691;PMS5003;58267;51.156;17.044;2023-04-24T00:17:18;37;35;
70691;PMS5003;58267;51.156;17.044;2023-04-24T00:19:44;34;33;
70691;PMS5003;58267;51.156;17.044;2023-04-24T00:22:10;37;37;
70691;PMS5003;58267;51.156;17.044;2023-04-24T00:24:35;46;43;
70691;PMS5003;58267;51.156;17.044;2023-04-24T00:27:01;39;39;
70691;PMS5003;58267;51.156;17.044;2023-04-24T00:29:26;45;44;
70691;PMS5003;58267;51.156;17.044;2023-04-24T00:31:52;39;38;
70691;PMS5003;58267;51.156;17.044;2023-04-24T00:34:18;44;43;
70691;PMS5003;58267;51.156;17.044;2023-04-24T00:36:43;40;39;
70691;PMS5003;58267;51.156;17.044;2023-04-24T00:39:08;37;35;
70691;PMS5003;58267;51.156;17.044;2023-04-24T00:41:34;37;35;
70691;PMS5003;58267;51.156;17.044;2023-04-24T00:44:00;41;40;
70691;PMS5003;58267;51.156;17.044;2023-04-24T00:46:25;39;39;
70691;PMS5003;58267;51.156;17.044;2023-04-24T00:48:51;36;36;
70691;PMS5003;58267;51.156;17.044;2023-04-24T00:51:17;40;37;
70691;PMS5003;58267;51.156;17.044;2023-04-24T00:53:42;37;37;
70691;PMS5003;58267;51.156;17.044;2023-04-24T00:56:08;40;40;
70691;PMS5003;58267;51.156;17.044;2023-04-24T00:58:33;42;39;
70691;PMS5003;58267;51.156;17.044;2023-04-24T01:00:59;35;33;
70691;PMS5003;58267;51.156;17.044;2023-04-24T01:03:25;39;38;
70691;PMS5003;58267;51.156;17.044;2023-04-24T01:05:50;39;37;
70691;PMS5003;58267;51.156;17.044;2023-04-24T01:08:15;37;37;
70691;PMS5003;58267;51.156;17.044;2023-04-24T01:10:41;41;39;
70691;PMS5003;58267;51.156;17.044;2023-04-24T01:13:06;44;41;
70691;PMS5003;58267;51.156;17.044;2023-04-24T01:15:31;42;42;
70691;PMS5003;58267;51.156;17.044;2023-04-24T01:17:57;42;40;
70691;PMS5003;58267;51.156;17.044;2023-04-24T01:20:22;41;40;
70691;PMS5003;58267;51.156;17.044;2023-04-24T01:22:48;47;44;
70691;PMS5003;58267;51.156;17.044;2023-04-24T01:25:13;47;45;
70691;PMS5003;58267;51.156;17.044;2023-04-24T01:27:39;46;43;
70691;PMS5003;58267;51.156;17.044;2023-04-24T01:30:04;42;40;
70691;PMS5003;58267;51.156;17.044;2023-04-24T01:32:30;47;45;
70691;PMS5003;58267;51.156;17.044;2023-04-24T01:34:55;44;44;
70691;PMS5003;58267;51.156;17.044;2023-04-24T01:37:21;42;42;
70691;PMS5003;58267;51.156;17.044;2023-04-24T01:39:46;45;44;
70691;PMS5003;58267;51.156;17.044;2023-04-24T01:42:12;42;42;
70691;PMS5003;58267;51.156;17.044;2023-04-24T01:44:36;37;36;
70691;PMS5003;58267;51.156;17.044;2023-04-24T01:47:02;40;39;
70691;PMS5003;58267;51.156;17.044;2023-04-24T01:49:27;42;39;
70691;PMS5003;58267;51.156;17.044;2023-04-24T01:51:52;42;40;
70691;PMS5003;58267;51.156;17.044;2023-04-24T01:54:18;44;42;
70691;PMS5003;58267;51.156;17.044;2023-04-24T01:56:43;44;43;
70691;PMS5003;58267;51.156;17.044;2023-04-24T01:59:09;48;44;
70691;PMS5003;58267;51.156;17.044;2023-04-24T02:01:34;46;43;
70691;PMS5003;58267;51.156;17.044;2023-04-24T02:03:59;41;41;
70691;PMS5003;58267;51.156;17.044;2023-04-24T02:06:25;42;41;
70691;PMS5003;58267;51.156;17.044;2023-04-24T02:08:50;49;48;
70691;PMS5003;58267;51.156;17.044;2023-04-24T02:11:16;44;43;
70691;PMS5003;58267;51.156;17.044;2023-04-24T02:13:41;39;38;
70691;PMS5003;58267;51.156;17.044;2023-04-24T02:16:07;41;40;
70691;PMS5003;58267;51.156;17.044;2023-04-24T02:18:33;38;37;
70691;PMS5003;58267;51.156;17.044;2023-04-24T02:20:58;42;40;
70691;PMS5003;58267;51.156;17.044;2023-04-24T02:23:24;45;41;
70691;PMS5003;58267;51.156;17.044;2023-04-24T02:25:49;42;42;
70691;PMS5003;58267;51.156;17.044;2023-04-24T02:28:15;39;39;
70691;PMS5003;58267;51.156;17.044;2023-04-24T02:30:40;45;43;
70691;PMS5003;58267;51.156;17.044;2023-04-24T02:33:05;46;44;
70691;PMS5003;58267;51.156;17.044;2023-04-24T02:35:30;41;39;
70691;PMS5003;58267;51.156;17.044;2023-04-24T02:37:56;42;42;
70691;PMS5003;58267;51.156;17.044;2023-04-24T02:40:21;40;39;
70691;PMS5003;58267;51.156;17.044;2023-04-24T02:42:46;38;37;
70691;PMS5003;58267;51.156;17.044;2023-04-24T02:45:12;45;43;
70691;PMS5003;58267;51.156;17.044;2023-04-24T02:47:37;40;39;
70691;PMS5003;58267;51.156;17.044;2023-04-24T02:50:03;41;40;
70691;PMS5003;58267;51.156;17.044;2023-04-24T02:52:28;51;45;
70691;PMS5003;58267;51.156;17.044;2023-04-24T02:54:53;42;41;
70691;PMS5003;58267;51.156;17.044;2023-04-24T02:57:19;40;36;
70691;PMS5003;58267;51.156;17.044;2023-04-24T02:59:44;42;40;
70691;PMS5003;58267;51.156;17.044;2023-04-24T03:02:09;38;38;
70691;PMS5003;58267;51.156;17.044;2023-04-24T03:04:35;46;44;
70691;PMS5003;58267;51.156;17.044;2023-04-24T03:07:00;38;37;
70691;PMS5003;58267;51.156;17.044;2023-04-24T03:09:25;39;38;
70691;PMS5003;58267;51.156;17.044;2023-04-24T03:11:51;42;41;
70691;PMS5003;58267;51.156;17.044;2023-04-24T03:14:16;38;37;
70691;PMS5003;58267;51.156;17.044;2023-04-24T03:16:42;45;45;
70691;PMS5003;58267;51.156;17.044;2023-04-24T03:19:08;42;40;
70691;PMS5003;58267;51.156;17.044;2023-04-24T03:21:33;42;39;
70691;PMS5003;58267;51.156;17.044;2023-04-24T03:23:58;44;41;
70691;PMS5003;58267;51.156;17.044;2023-04-24T03:26:24;43;43;
70691;PMS5003;58267;51.156;17.044;2023-04-24T03:28:49;40;38;
70691;PMS5003;58267;51.156;17.044;2023-04-24T03:31:15;41;39;
70691;PMS5003;58267;51.156;17.044;2023-04-24T03:33:40;45;45;
70691;PMS5003;58267;51.156;17.044;2023-04-24T03:36:06;42;41;
70691;PMS5003;58267;51.156;17.044;2023-04-24T03:38:31;44;40;
70691;PMS5003;58267;51.156;17.044;2023-04-24T03:40:56;41;40;
70691;PMS5003;58267;51.156;17.044;2023-04-24T03:43:21;50;47;
70691;PMS5003;58267;51.156;17.044;2023-04-24T03:45:47;47;41;
70691;PMS5003;58267;51.156;17.044;2023-04-24T03:48:12;44;43;
70691;PMS5003;58267;51.156;17.044;2023-04-24T03:50:38;46;44;
70691;PMS5003;58267;51.156;17.044;2023-04-24T03:53:03;45;43;
70691;PMS5003;58267;51.156;17.044;2023-04-24T03:55:29;44;41;
70691;PMS5003;58267;51.156;17.044;2023-04-24T03:57:54;43;40;
70691;PMS5003;58267;51.156;17.044;2023-04-24T04:00:19;43;41;
70691;PMS5003;58267;51.156;17.044;2023-04-24T04:02:44;42;41;
70691;PMS5003;58267;51.156;17.044;2023-04-24T04:05:10;47;46;
70691;PMS5003;58267;51.156;17.044;2023-04-24T04:07:35;43;42;
70691;PMS5003;58267;51.156;17.044;2023-04-24T04:10:01;43;42;
70691;PMS5003;58267;51.156;17.044;2023-04-24T04:12:27;41;40;
70691;PMS5003;58267;51.156;17.044;2023-04-24T04:14:52;38;38;
70691;PMS5003;58267;51.156;17.044;2023-04-24T04:17:17;45;43;
70691;PMS5003;58267;51.156;17.044;2023-04-24T04:19:43;40;39;
70691;PMS5003;58267;51.156;17.044;2023-04-24T04:22:08;44;43;
70691;PMS5003;58267;51.156;17.044;2023-04-24T04:24:33;41;41;
70691;PMS5003;58267;51.156;17.044;2023-04-24T04:26:58;40;39;
70691;PMS5003;58267;51.156;17.044;2023-04-24T04:29:24;44;41;
70691;PMS5003;58267;51.156;17.044;2023-04-24T04:31:50;42;41;
70691;PMS5003;58267;51.156;17.044;2023-04-24T04:34:15;45;41;
70691;PMS5003;58267;51.156;17.044;2023-04-24T04:36:40;40;39;
70691;PMS5003;58267;51.156;17.044;2023-04-24T04:39:06;42;40;
70691;PMS5003;58267;51.156;17.044;2023-04-24T04:41:31;37;37;
70691;PMS5003;58267;51.156;17.044;2023-04-24T04:43:56;42;39;
70691;PMS5003;58267;51.156;17.044;2023-04-24T04:46:21;45;42;
70691;PMS5003;58267;51.156;17.044;2023-04-24T04:48:47;42;40;
70691;PMS5003;58267;51.156;17.044;2023-04-24T04:51:12;43;42;
70691;PMS5003;58267;51.156;17.044;2023-04-24T04:53:38;41;40;
70691;PMS5003;58267;51.156;17.044;2023-04-24T04:56:04;41;40;
70691;PMS5003;58267;51.156;17.044;2023-04-24T04:58:29;47;46;
70691;PMS5003;58267;51.156;17.044;2023-04-24T05:00:55;42;40;
70691;PMS5003;58267;51.156;17.044;2023-04-24T05:03:20;42;40;
70691;PMS5003;58267;51.156;17.044;2023-04-24T05:05:45;44;43;
70691;PMS5003;58267;51.156;17.044;2023-04-24T05:08:11;43;41;
70691;PMS5003;58267;51.156;17.044;2023-04-24T05:10:36;42;42;
70691;PMS5003;58267;51.156;17.044;2023-04-24T05:13:02;43;41;
70691;PMS5003;58267;51.156;17.044;2023-04-24T05:15:28;42;41;
70691;PMS5003;58267;51.156;17.044;2023-04-24T05:17:54;41;39;
70691;PMS5003;58267;51.156;17.044;2023-04-24T05:20:19;42;40;
70691;PMS5003;58267;51.156;17.044;2023-04-24T05:22:45;41;39;
70691;PMS5003;58267;51.156;17.044;2023-04-24T05:25:10;38;38;
70691;PMS5003;58267;51.156;17.044;2023-04-24T05:27:36;41;39;
70691;PMS5003;58267;51.156;17.044;2023-04-24T05:30:02;42;41;
70691;PMS5003;58267;51.156;17.044;2023-04-24T05:32:27;97;92;
70691;PMS5003;58267;51.156;17.044;2023-04-24T05:34:52;83;82;
70691;PMS5003;58267;51.156;17.044;2023-04-24T05:37:18;66;63;
70691;PMS5003;58267;51.156;17.044;2023-04-24T05:39:43;59;57;
70691;PMS5003;58267;51.156;17.044;2023-04-24T05:42:09;50;49;
70691;PMS5003;58267;51.156;17.044;2023-04-24T05:44:35;46;43;
70691;PMS5003;58267;51.156;17.044;2023-04-24T05:47:00;44;43;
70691;PMS5003;58267;51.156;17.044;2023-04-24T05:49:25;34;34;
70691;PMS5003;58267;51.156;17.044;2023-04-24T05:51:50;34;32;
70691;PMS5003;58267;51.156;17.044;2023-04-24T05:54:15;37;35;
70691;PMS5003;58267;51.156;17.044;2023-04-24T05:56:41;31;29;
70691;PMS5003;58267;51.156;17.044;2023-04-24T05:59:06;30;29;
70691;PMS5003;58267;51.156;17.044;2023-04-24T06:01:31;24;23;
70691;PMS5003;58267;51.156;17.044;2023-04-24T06:03:57;24;22;
70691;PMS5003;58267;51.156;17.044;2023-04-24T06:06:23;23;20;
70691;PMS5003;58267;51.156;17.044;2023-04-24T06:08:48;21;20;
70691;PMS5003;58267;51.156;17.044;2023-04-24T06:11:13;19;17;
70691;PMS5003;58267;51.156;17.044;2023-04-24T06:13:38;21;19;
70691;PMS5003;58267;51.156;17.044;2023-04-24T06:16:04;18;17;
70691;PMS5003;58267;51.156;17.044;2023-04-24T06:18:29;19;19;
70691;PMS5003;58267;51.156;17.044;2023-04-24T06:20:54;26;25;
70691;PMS5003;58267;51.156;17.044;2023-04-24T06:23:20;24;24;
70691;PMS5003;58267;51.156;17.044;2023-04-24T06:25:45;28;28;
70691;PMS5003;58267;51.156;17.044;2023-04-24T06:28:10;27;27;
70691;PMS5003;58267;51.156;17.044;2023-04-24T06:30:35;22;21;
70691;PMS5003;58267;51.156;17.044;2023-04-24T06:33:01;25;25;
70691;PMS5003;58267;51.156;17.044;2023-04-24T06:35:26;22;22;
70691;PMS5003;58267;51.156;17.044;2023-04-24T06:37:51;28;27;
70691;PMS5003;58267;51.156;17.044;2023-04-24T06:40:16;26;25;
70691;PMS5003;58267;51.156;17.044;2023-04-24T06:42:42;22;22;
70691;PMS5003;58267;51.156;17.044;2023-04-24T06:45:08;24;23;
70691;PMS5003;58267;51.156;17.044;2023-04-24T06:47:33;24;24;
70691;PMS5003;58267;51.156;17.044;2023-04-24T06:49:59;25;23;
70691;PMS5003;58267;51.156;17.044;2023-04-24T06:52:24;23;23;
70691;PMS5003;58267;51.156;17.044;2023-04-24T06:54:50;20;20;
70691;PMS5003;58267;51.156;17.044;2023-04-24T06:57:17;22;21;
70691;PMS5003;58267;51.156;17.044;2023-04-24T06:59:42;23;22;
70691;PMS5003;58267;51.156;17.044;2023-04-24T07:02:07;22;21;
70691;PMS5003;58267;51.156;17.044;2023-04-24T07:04:32;26;25;
70691;PMS5003;58267;51.156;17.044;2023-04-24T07:06:57;24;24;
70691;PMS5003;58267;51.156;17.044;2023-04-24T07:09:23;23;22;
70691;PMS5003;58267;51.156;17.044;2023-04-24T07:11:48;26;24;
70691;PMS5003;58267;51.156;17.044;2023-04-24T07:14:13;25;24;
70691;PMS5003;58267;51.156;17.044;2023-04-24T07:16:39;22;21;
70691;PMS5003;58267;51.156;17.044;2023-04-24T07:19:04;21;21;
70691;PMS5003;58267;51.156;17.044;2023-04-24T07:21:29;24;23;
70691;PMS5003;58267;51.156;17.044;2023-04-24T07:23:55;24;23;
70691;PMS5003;58267;51.156;17.044;2023-04-24T07:26:21;25;23;
70691;PMS5003;58267;51.156;17.044;2023-04-24T07:28:46;24;23;
70691;PMS5003;58267;51.156;17.044;2023-04-24T07:31:12;21;21;
70691;PMS5003;58267;51.156;17.044;2023-04-24T07:33:37;24;22;
70691;PMS5003;58267;51.156;17.044;2023-04-24T07:36:03;24;24;
70691;PMS5003;58267;51.156;17.044;2023-04-24T07:38:29;23;22;
70691;PMS5003;58267;51.156;17.044;2023-04-24T07:40:53;21;21;
70691;PMS5003;58267;51.156;17.044;2023-04-24T07:43:19;26;26;
70691;PMS5003;58267;51.156;17.044;2023-04-24T07:45:45;23;22;
70691;PMS5003;58267;51.156;17.044;2023-04-24T07:48:10;24;24;
70691;PMS5003;58267;51.156;17.044;2023-04-24T07:50:36;24;24;
70691;PMS5003;58267;51.156;17.044;2023-04-24T07:53:01;22;22;
70691;PMS5003;58267;51.156;17.044;2023-04-24T07:55:27;23;22;
70691;PMS5003;58267;51.156;17.044;2023-04-24T07:57:52;20;19;
70691;PMS5003;58267;51.156;17.044;2023-04-24T08:00:17;18;17;
70691;PMS5003;58267;51.156;17.044;2023-04-24T08:02:42;21;20;
70691;PMS5003;58267;51.156;17.044;2023-04-24T08:05:08;20;19;
70691;PMS5003;58267;51.156;17.044;2023-04-24T08:07:33;22;21;
70691;PMS5003;58267;51.156;17.044;2023-04-24T08:09:58;22;20;
70691;PMS5003;58267;51.156;17.044;2023-04-24T08:12:24;19;18;
70691;PMS5003;58267;51.156;17.044;2023-04-24T08:14:50;20;18;
70691;PMS5003;58267;51.156;17.044;2023-04-24T08:17:16;21;20;
70691;PMS5003;58267;51.156;17.044;2023-04-24T08:19:41;19;19;
70691;PMS5003;58267;51.156;17.044;2023-04-24T08:22:07;17;17;
70691;PMS5003;58267;51.156;17.044;2023-04-24T08:24:32;17;17;
70691;PMS5003;58267;51.156;17.044;2023-04-24T08:26:57;18;17;
70691;PMS5003;58267;51.156;17.044;2023-04-24T08:29:23;18;18;
70691;PMS5003;58267;51.156;17.044;2023-04-24T08:31:48;21;19;
70691;PMS5003;58267;51.156;17.044;2023-04-24T08:34:13;23;22;
70691;PMS5003;58267;51.156;17.044;2023-04-24T08:36:39;21;19;
70691;PMS5003;58267;51.156;17.044;2023-04-24T08:39:05;22;21;
70691;PMS5003;58267;51.156;17.044;2023-04-24T08:41:30;19;18;
70691;PMS5003;58267;51.156;17.044;2023-04-24T08:43:56;21;21;
70691;PMS5003;58267;51.156;17.044;2023-04-24T08:46:21;21;19;
70691;PMS5003;58267;51.156;17.044;2023-04-24T08:48:46;18;18;
70691;PMS5003;58267;51.156;17.044;2023-04-24T08:51:12;23;22;
70691;PMS5003;58267;51.156;17.044;2023-04-24T08:53:38;18;18;
70691;PMS5003;58267;51.156;17.044;2023-04-24T08:56:03;20;19;
70691;PMS5003;58267;51.156;17.044;2023-04-24T08:58:31;20;19;
70691;PMS5003;58267;51.156;17.044;2023-04-24T09:00:55;16;16;
70691;PMS5003;58267;51.156;17.044;2023-04-24T09:03:21;18;18;
70691;PMS5003;58267;51.156;17.044;2023-04-24T09:05:46;17;17;
70691;PMS5003;58267;51.156;17.044;2023-04-24T09:08:11;17;16;
70691;PMS5003;58267;51.156;17.044;2023-04-24T09:10:37;17;17;
70691;PMS5003;58267;51.156;17.044;2023-04-24T09:13:02;19;16;
70691;PMS5003;58267;51.156;17.044;2023-04-24T09:15:28;20;17;
70691;PMS5003;58267;51.156;17.044;2023-04-24T09:17:53;16;16;
70691;PMS5003;58267;51.156;17.044;2023-04-24T09:20:19;15;14;
70691;PMS5003;58267;51.156;17.044;2023-04-24T09:22:44;17;17;
70691;PMS5003;58267;51.156;17.044;2023-04-24T09:25:10;16;15;
70691;PMS5003;58267;51.156;17.044;2023-04-24T09:27:35;15;15;
70691;PMS5003;58267;51.156;17.044;2023-04-24T09:30:01;15;14;
70691;PMS5003;58267;51.156;17.044;2023-04-24T09:32:26;17;16;
70691;PMS5003;58267;51.156;17.044;2023-04-24T09:39:42;16;16;
70691;PMS5003;58267;51.156;17.044;2023-04-24T09:42:07;13;13;
70691;PMS5003;58267;51.156;17.044;2023-04-24T09:44:34;21;20;
70691;PMS5003;58267;51.156;17.044;2023-04-24T09:46:57;16;16;
70691;PMS5003;58267;51.156;17.044;2023-04-24T09:49:23;20;19;
70691;PMS5003;58267;51.156;17.044;2023-04-24T09:51:48;19;18;
70691;PMS5003;58267;51.156;17.044;2023-04-24T09:54:14;18;17;
70691;PMS5003;58267;51.156;17.044;2023-04-24T09:56:39;18;18;
70691;PMS5003;58267;51.156;17.044;2023-04-24T09:59:04;20;20;
70691;PMS5003;58267;51.156;17.044;2023-04-24T10:01:30;17;16;
70691;PMS5003;58267;51.156;17.044;2023-04-24T10:03:55;17;17;
70691;PMS5003;58267;51.156;17.044;2023-04-24T10:06:20;21;19;
70691;PMS5003;58267;51.156;17.044;2023-04-24T10:08:45;20;20;
70691;PMS5003;58267;51.156;17.044;2023-04-24T10:11:11;23;22;
70691;PMS5003;58267;51.156;17.044;2023-04-24T10:13:36;20;19;
70691;PMS5003;58267;51.156;17.044;2023-04-24T10:16:01;22;21;
70691;PMS5003;58267;51.156;17.044;2023-04-24T10:18:26;20;20;
70691;PMS5003;58267;51.156;17.044;2023-04-24T10:20:52;21;20;
70691;PMS5003;58267;51.156;17.044;2023-04-24T10:23:17;24;23;
70691;PMS5003;58267;51.156;17.044;2023-04-24T10:25:43;19;18;
70691;PMS5003;58267;51.156;17.044;2023-04-24T10:28:08;19;19;
70691;PMS5003;58267;51.156;17.044;2023-04-24T10:30:34;17;17;
70691;PMS5003;58267;51.156;17.044;2023-04-24T10:32:59;18;18;
70691;PMS5003;58267;51.156;17.044;2023-04-24T10:35:24;19;19;
70691;PMS5003;58267;51.156;17.044;2023-04-24T10:37:50;18;18;
70691;PMS5003;58267;51.156;17.044;2023-04-24T10:40:17;18;18;
70691;PMS5003;58267;51.156;17.044;2023-04-24T10:42:41;19;18;
70691;PMS5003;58267;51.156;17.044;2023-04-24T10:45:06;16;16;
70691;PMS5003;58267;51.156;17.044;2023-04-24T10:49:58;17;16;
70691;PMS5003;58267;51.156;17.044;2023-04-24T10:52:21;13;13;
70691;PMS5003;58267;51.156;17.044;2023-04-24T10:54:47;17;16;
70691;PMS5003;58267;51.156;17.044;2023-04-24T10:59:37;14;14;
70691;PMS5003;58267;51.156;17.044;2023-04-24T11:02:03;17;16;
70691;PMS5003;58267;51.156;17.044;2023-04-24T11:04:30;18;16;
70691;PMS5003;58267;51.156;17.044;2023-04-24T11:06:54;18;18;
70691;PMS5003;58267;51.156;17.044;2023-04-24T11:09:20;14;14;
70691;PMS5003;58267;51.156;17.044;2023-04-24T11:11:45;20;19;
70691;PMS5003;58267;51.156;17.044;2023-04-24T11:14:13;17;15;
70691;PMS5003;58267;51.156;17.044;2023-04-24T11:16:38;18;18;
70691;PMS5003;58267;51.156;17.044;2023-04-24T11:19:02;19;19;
70691;PMS5003;58267;51.156;17.044;2023-04-24T11:21:31;19;18;
70691;PMS5003;58267;51.156;17.044;2023-04-24T11:23:52;16;16;
70691;PMS5003;58267;51.156;17.044;2023-04-24T11:26:19;21;21;
70691;PMS5003;58267;51.156;17.044;2023-04-24T11:28:45;23;22;
70691;PMS5003;58267;51.156;17.044;2023-04-24T11:33:34;18;18;
70691;PMS5003;58267;51.156;17.044;2023-04-24T11:35:59;20;20;
70691;PMS5003;58267;51.156;17.044;2023-04-24T11:38:26;20;20;
70691;PMS5003;58267;51.156;17.044;2023-04-24T11:40:52;21;19;
70691;PMS5003;58267;51.156;17.044;2023-04-24T11:43:17;19;18;
70691;PMS5003;58267;51.156;17.044;2023-04-24T11:45:47;20;20;
70691;PMS5003;58267;51.156;17.044;2023-04-24T11:48:08;18;16;
70691;PMS5003;58267;51.156;17.044;2023-04-24T11:50:33;20;20;
70691;PMS5003;58267;51.156;17.044;2023-04-24T11:52:59;16;16;
70691;PMS5003;58267;51.156;17.044;2023-04-24T11:55:25;17;17;
70691;PMS5003;58267;51.156;17.044;2023-04-24T11:57:50;16;16;
70691;PMS5003;58267;51.156;17.044;2023-04-24T12:00:16;17;16;
70691;PMS5003;58267;51.156;17.044;2023-04-24T12:02:41;16;16;
70691;PMS5003;58267;51.156;17.044;2023-04-24T12:05:07;16;16;
70691;PMS5003;58267;51.156;17.044;2023-04-24T12:07:32;20;19;
70691;PMS5003;58267;51.156;17.044;2023-04-24T12:09:57;17;17;
70691;PMS5003;58267;51.156;17.044;2023-04-24T12:12:24;20;19;
70691;PMS5003;58267;51.156;17.044;2023-04-24T12:14:49;20;20;
70691;PMS5003;58267;51.156;17.044;2023-04-24T12:17:14;18;18;
70691;PMS5003;58267;51.156;17.044;2023-04-24T12:19:44;18;18;
70691;PMS5003;58267;51.156;17.044;2023-04-24T12:22:06;18;18;
70691;PMS5003;58267;51.156;17.044;2023-04-24T12:24:31;18;18;
70691;PMS5003;58267;51.156;17.044;2023-04-24T12:26:56;17;16;
70691;PMS5003;58267;51.156;17.044;2023-04-24T12:29:22;17;17;
70691;PMS5003;58267;51.156;17.044;2023-04-24T12:31:47;18;18;
70691;PMS5003;58267;51.156;17.044;2023-04-24T12:34:17;17;17;
70691;PMS5003;58267;51.156;17.044;2023-04-24T12:36:37;16;16;
70691;PMS5003;58267;51.156;17.044;2023-04-24T12:39:03;14;14;
70691;PMS5003;58267;51.156;17.044;2023-04-24T12:41:30;14;14;
70691;PMS5003;58267;51.156;17.044;2023-04-24T12:43:54;12;12;
70691;PMS5003;58267;51.156;17.044;2023-04-24T12:46:19;16;15;
70691;PMS5003;58267;51.156;17.044;2023-04-24T12:48:44;16;16;
70691;PMS5003;58267;51.156;17.044;2023-04-24T12:51:09;18;18;
70691;PMS5003;58267;51.156;17.044;2023-04-24T12:53:34;16;14;
70691;PMS5003;58267;51.156;17.044;2023-04-24T12:55:59;17;17;
70691;PMS5003;58267;51.156;17.044;2023-04-24T12:58:25;19;18;
70691;PMS5003;58267;51.156;17.044;2023-04-24T13:00:50;18;18;
70691;PMS5003;58267;51.156;17.044;2023-04-24T13:03:16;19;19;
70691;PMS5003;58267;51.156;17.044;2023-04-24T13:05:42;15;15;
70691;PMS5003;58267;51.156;17.044;2023-04-24T13:08:07;17;17;
70691;PMS5003;58267;51.156;17.044;2023-04-24T13:10:33;12;12;
70691;PMS5003;58267;51.156;17.044;2023-04-24T13:12:58;7;7;
70691;PMS5003;58267;51.156;17.044;2023-04-24T13:15:23;6;6;
70691;PMS5003;58267;51.156;17.044;2023-04-24T13:17:48;5;5;
70691;PMS5003;58267;51.156;17.044;2023-04-24T13:20:13;4;4;
70691;PMS5003;58267;51.156;17.044;2023-04-24T13:22:39;5;5;
70691;PMS5003;58267;51.156;17.044;2023-04-24T13:25:05;8;8;
70691;PMS5003;58267;51.156;17.044;2023-04-24T13:27:30;28;22;
70691;PMS5003;58267;51.156;17.044;2023-04-24T13:29:56;5;5;
70691;PMS5003;58267;51.156;17.044;2023-04-24T13:32:21;7;7;
70691;PMS5003;58267;51.156;17.044;2023-04-24T13:34:46;9;9;
70691;PMS5003;58267;51.156;17.044;2023-04-24T13:37:12;10;8;
70691;PMS5003;58267;51.156;17.044;2023-04-24T13:39:37;6;6;
70691;PMS5003;58267;51.156;17.044;2023-04-24T13:42:03;6;5;
70691;PMS5003;58267;51.156;17.044;2023-04-24T13:44:28;3;3;
70691;PMS5003;58267;51.156;17.044;2023-04-24T13:46:55;6;6;
70691;PMS5003;58267;51.156;17.044;2023-04-24T13:49:20;5;5;
70691;PMS5003;58267;51.156;17.044;2023-04-24T13:51:45;4;4;
70691;PMS5003;58267;51.156;17.044;2023-04-24T13:54:10;5;5;
70691;PMS5003;58267;51.156;17.044;2023-04-24T13:56:35;4;4;
70691;PMS5003;58267;51.156;17.044;2023-04-24T13:59:00;3;3;
70691;PMS5003;58267;51.156;17.044;2023-04-24T14:01:26;2;2;
70691;PMS5003;58267;51.156;17.044;2023-04-24T14:03:51;3;3;
70691;PMS5003;58267;51.156;17.044;2023-04-24T14:06:16;5;5;
70691;PMS5003;58267;51.156;17.044;2023-04-24T14:08:41;3;3;
70691;PMS5003;58267;51.156;17.044;2023-04-24T14:11:06;2;2;
70691;PMS5003;58267;51.156;17.044;2023-04-24T14:13:31;4;3;
70691;PMS5003;58267;51.156;17.044;2023-04-24T14:15:58;2;2;
70691;PMS5003;58267;51.156;17.044;2023-04-24T14:18:23;3;3;
70691;PMS5003;58267;51.156;17.044;2023-04-24T14:20:47;5;5;
70691;PMS5003;58267;51.156;17.044;2023-04-24T14:23:12;4;4;
70691;PMS5003;58267;51.156;17.044;2023-04-24T14:25:37;5;5;
70691;PMS5003;58267;51.156;17.044;2023-04-24T14:28:02;5;5;
70691;PMS5003;58267;51.156;17.044;2023-04-24T14:30:28;4;4;
70691;PMS5003;58267;51.156;17.044;2023-04-24T14:32:53;6;5;
70691;PMS5003;58267;51.156;17.044;2023-04-24T14:35:18;7;7;
70691;PMS5003;58267;51.156;17.044;2023-04-24T14:37:44;6;6;
70691;PMS5003;58267;51.156;17.044;2023-04-24T14:40:10;5;5;
70691;PMS5003;58267;51.156;17.044;2023-04-24T14:42:39;6;6;
70691;PMS5003;58267;51.156;17.044;2023-04-24T14:44:59;7;7;
70691;PMS5003;58267;51.156;17.044;2023-04-24T14:47:25;8;7;
70691;PMS5003;58267;51.156;17.044;2023-04-24T14:49:50;8;8;
70691;PMS5003;58267;51.156;17.044;2023-04-24T14:52:15;10;7;
70691;PMS5003;58267;51.156;17.044;2023-04-24T14:54:40;11;10;
70691;PMS5003;58267;51.156;17.044;2023-04-24T14:57:06;9;9;
70691;PMS5003;58267;51.156;17.044;2023-04-24T14:59:31;10;9;
70691;PMS5003;58267;51.156;17.044;2023-04-24T15:01:56;12;12;
70691;PMS5003;58267;51.156;17.044;2023-04-24T15:04:21;9;9;
70691;PMS5003;58267;51.156;17.044;2023-04-24T15:06:46;10;8;
70691;PMS5003;58267;51.156;17.044;2023-04-24T15:09:12;8;8;
70691;PMS5003;58267;51.156;17.044;2023-04-24T15:11:37;11;9;
70691;PMS5003;58267;51.156;17.044;2023-04-24T15:14:02;8;8;
70691;PMS5003;58267;51.156;17.044;2023-04-24T15:16:27;10;8;
70691;PMS5003;58267;51.156;17.044;2023-04-24T15:18:52;10;9;
70691;PMS5003;58267;51.156;17.044;2023-04-24T15:21:18;8;8;
70691;PMS5003;58267;51.156;17.044;2023-04-24T15:23:43;10;10;
70691;PMS5003;58267;51.156;17.044;2023-04-24T15:26:08;9;9;
70691;PMS5003;58267;51.156;17.044;2023-04-24T15:28:33;9;7;
70691;PMS5003;58267;51.156;17.044;2023-04-24T15:30:58;12;11;
70691;PMS5003;58267;51.156;17.044;2023-04-24T15:33:24;8;8;
70691;PMS5003;58267;51.156;17.044;2023-04-24T15:35:49;8;7;
70691;PMS5003;58267;51.156;17.044;2023-04-24T15:38:14;10;9;
70691;PMS5003;58267;51.156;17.044;2023-04-24T15:40:39;10;10;
70691;PMS5003;58267;51.156;17.044;2023-04-24T15:43:04;7;6;
70691;PMS5003;58267;51.156;17.044;2023-04-24T15:45:29;5;5;
70691;PMS5003;58267;51.156;17.044;2023-04-24T15:47:55;9;9;
70691;PMS5003;58267;51.156;17.044;2023-04-24T15:50:21;8;8;
70691;PMS5003;58267;51.156;17.044;2023-04-24T15:52:47;8;7;
70691;PMS5003;58267;51.156;17.044;2023-04-24T15:55:12;9;8;
70691;PMS5003;58267;51.156;17.044;2023-04-24T15:57:37;13;12;
70691;PMS5003;58267;51.156;17.044;2023-04-24T16:00:03;15;14;
70691;PMS5003;58267;51.156;17.044;2023-04-24T16:02:28;11;10;
70691;PMS5003;58267;51.156;17.044;2023-04-24T16:04:54;8;7;